Time;durP1;ratioP1;P1;durP2;ratioP2;P2;SDS_P1;SDS_P2;PMS_P1;PMS_P2;Temp;Humidity;BMP_temperature;BMP_pressure;BME280_temperature;BME280_humidity;BME280_pressure;Samples;Min_cycle;Max_cycle;Signal;HPM_P1;HPM_P2
2021/06/26 00:01:19;;;;;;;16.53;12.27;;;18.00;99.90;;;;;;5031033;28;20498;-58
2021/06/26 00:03:46;;;;;;;11.60;10.40;;;17.90;99.90;;;;;;5031258;28;20855;-58
2021/06/26 00:06:13;;;;;;;9.77;8.00;;;17.90;99.90;;;;;;5030973;28;20461;-58
2021/06/26 00:08:42;;;;;;;11.40;7.87;;;17.90;99.90;;;;;;5030922;28;21074;-59
2021/06/26 00:11:09;;;;;;;7.83;6.20;;;17.80;99.90;;;;;;5031126;28;20510;-58
2021/06/26 00:13:36;;;;;;;7.83;5.30;;;17.90;99.90;;;;;;5031294;28;20484;-57
2021/06/26 00:16:03;;;;;;;6.97;5.70;;;18.00;99.90;;;;;;5031310;28;20495;-57
2021/06/26 00:18:30;;;;;;;6.50;5.53;;;17.90;99.90;;;;;;5031345;28;20461;-59
2021/06/26 00:20:57;;;;;;;6.83;5.87;;;17.80;99.90;;;;;;5031005;28;20514;-59
2021/06/26 00:23:24;;;;;;;11.13;6.50;;;17.90;99.90;;;;;;5030533;28;20847;-59
2021/06/26 00:25:52;;;;;;;8.27;6.67;;;17.40;99.90;;;;;;5031198;28;20453;-59
2021/06/26 00:28:19;;;;;;;11.03;6.20;;;16.80;99.90;;;;;;5031448;28;20563;-58
2021/06/26 00:30:47;;;;;;;7.43;6.60;;;16.70;99.90;;;;;;5041338;28;20455;-57
2021/06/26 00:33:14;;;;;;;10.53;6.53;;;16.80;99.90;;;;;;5051362;28;20495;-58
2021/06/26 00:35:41;;;;;;;6.10;5.50;;;17.00;99.90;;;;;;5051518;28;20448;-58
2021/06/26 00:38:08;;;;;;;7.23;6.53;;;17.10;99.90;;;;;;5051547;28;20505;-58
2021/06/26 00:40:35;;;;;;;6.60;5.50;;;17.10;99.90;;;;;;5042055;28;20475;-59
2021/06/26 00:43:04;;;;;;;8.70;5.90;;;17.10;99.90;;;;;;5031057;28;20448;-57
2021/06/26 00:45:31;;;;;;;6.53;5.90;;;17.10;99.90;;;;;;5031444;28;20453;-58
2021/06/26 00:47:58;;;;;;;6.67;5.80;;;17.20;99.90;;;;;;5031597;28;20457;-58
2021/06/26 00:50:27;;;;;;;7.70;6.13;;;17.20;99.90;;;;;;5038015;28;20831;-57
2021/06/26 00:52:54;;;;;;;7.27;6.10;;;17.20;99.90;;;;;;5048002;28;20475;-58
2021/06/26 00:55:21;;;;;;;7.90;6.93;;;17.10;99.90;;;;;;5031337;28;20531;-58
2021/06/26 00:57:53;;;;;;;9.57;7.03;;;16.80;99.90;;;;;;5030946;28;20452;-58
2021/06/26 01:00:23;;;;;;;9.07;7.23;;;16.60;99.90;;;;;;5031566;28;20452;-59
2021/06/26 01:02:50;;;;;;;8.30;6.80;;;16.40;99.90;;;;;;5030977;28;20950;-59
2021/06/26 01:05:17;;;;;;;8.77;7.23;;;16.30;99.90;;;;;;5029380;28;20449;-58
2021/06/26 01:07:46;;;;;;;8.70;6.80;;;16.50;99.90;;;;;;5029263;28;20851;-58
2021/06/26 01:10:13;;;;;;;10.40;7.13;;;16.60;99.90;;;;;;5031143;28;20819;-59
2021/06/26 01:12:41;;;;;;;8.20;6.50;;;16.70;99.90;;;;;;5050307;28;20479;-59
2021/06/26 01:15:10;;;;;;;7.10;5.97;;;16.70;99.90;;;;;;5031258;28;20472;-58
2021/06/26 01:17:38;;;;;;;12.37;6.50;;;16.70;99.90;;;;;;5031259;28;20453;-58
2021/06/26 01:20:08;;;;;;;7.57;6.77;;;16.70;99.90;;;;;;5032111;28;20530;-58
2021/06/26 01:22:42;;;;;;;6.33;5.73;;;16.70;99.90;;;;;;5030809;28;20452;-58
2021/06/26 01:25:10;;;;;;;9.80;6.43;;;16.70;99.90;;;;;;5035024;28;20468;-58
2021/06/26 01:27:37;;;;;;;8.43;7.40;;;16.70;99.90;;;;;;5034501;28;20451;-58
2021/06/26 01:30:06;;;;;;;7.50;6.50;;;16.70;99.90;;;;;;5034581;28;20479;-58
2021/06/26 01:32:33;;;;;;;6.87;5.40;;;16.80;99.90;;;;;;5034354;28;20457;-58
2021/06/26 01:35:00;;;;;;;5.50;4.83;;;16.70;99.90;;;;;;5034565;28;20480;-59
2021/06/26 01:37:27;;;;;;;5.90;5.10;;;16.70;99.90;;;;;;5034787;28;20444;-59
2021/06/26 01:39:55;;;;;;;5.67;5.13;;;16.70;99.90;;;;;;5034539;28;20464;-59
2021/06/26 01:42:22;;;;;;;6.73;5.03;;;16.70;99.90;;;;;;5042488;28;20448;-58
2021/06/26 01:44:49;;;;;;;4.97;4.57;;;16.70;99.90;;;;;;5051420;28;20467;-58
2021/06/26 01:47:16;;;;;;;6.00;5.40;;;16.70;99.90;;;;;;5054186;28;20873;-59
2021/06/26 01:49:43;;;;;;;6.40;5.70;;;16.60;99.90;;;;;;5054186;28;20455;-59
2021/06/26 01:52:11;;;;;;;9.53;5.60;;;16.50;99.90;;;;;;5053459;28;20463;-58
2021/06/26 01:54:38;;;;;;;6.80;5.57;;;16.50;99.90;;;;;;5037748;28;20636;-59
2021/06/26 01:57:09;;;;;;;8.37;5.57;;;16.40;99.90;;;;;;5033974;28;20478;-58
2021/06/26 01:59:36;;;;;;;6.20;4.83;;;16.40;99.90;;;;;;5014545;28;20454;-58
2021/06/26 02:02:03;;;;;;;6.30;5.53;;;16.40;99.90;;;;;;5044256;28;20514;-59
2021/06/26 02:04:30;;;;;;;7.50;5.70;;;16.40;99.90;;;;;;5034048;28;20526;-58
2021/06/26 02:06:57;;;;;;;6.57;5.70;;;16.40;99.90;;;;;;5034305;28;20456;-58
2021/06/26 02:09:24;;;;;;;7.53;5.77;;;16.50;99.90;;;;;;5033941;28;20452;-59
2021/06/26 02:11:51;;;;;;;7.60;6.47;;;16.40;99.90;;;;;;5050291;28;20582;-58
2021/06/26 02:14:20;;;;;;;6.50;5.53;;;16.40;99.90;;;;;;5053565;28;20479;-58
2021/06/26 02:16:47;;;;;;;9.90;5.90;;;16.30;99.90;;;;;;5046873;28;20498;-59
2021/06/26 02:19:14;;;;;;;24.97;7.27;;;16.20;99.90;;;;;;5033783;28;20457;-58
2021/06/26 02:21:41;;;;;;;5.80;5.17;;;16.20;99.90;;;;;;5034799;28;20456;-59
2021/06/26 02:24:09;;;;;;;9.90;5.90;;;16.20;99.90;;;;;;5033652;28;20534;-59
2021/06/26 02:26:36;;;;;;;7.83;6.30;;;16.20;99.90;;;;;;5033646;28;20453;-58
2021/06/26 02:29:03;;;;;;;7.33;5.87;;;16.20;99.90;;;;;;5033739;28;20445;-59
2021/06/26 02:31:32;;;;;;;7.17;6.13;;;16.10;99.90;;;;;;5033411;28;20465;-58
2021/06/26 02:33:59;;;;;;;7.10;5.97;;;16.10;99.90;;;;;;5033509;28;20554;-58
2021/06/26 02:36:26;;;;;;;10.07;6.00;;;16.10;99.90;;;;;;5034195;28;20875;-58
2021/06/26 02:38:53;;;;;;;6.80;5.80;;;16.00;99.90;;;;;;5033378;28;20457;-58
2021/06/26 02:41:22;;;;;;;7.67;5.70;;;16.10;99.90;;;;;;5047296;28;20448;-58
2021/06/26 02:43:49;;;;;;;6.83;5.67;;;16.00;99.90;;;;;;5058311;28;20890;-58
2021/06/26 02:46:16;;;;;;;7.27;5.87;;;16.00;99.90;;;;;;5040707;28;20449;-58
2021/06/26 02:48:45;;;;;;;8.10;5.17;;;16.00;99.90;;;;;;5042554;28;20452;-59
2021/06/26 02:51:12;;;;;;;7.00;5.50;;;16.00;99.90;;;;;;5041749;28;20804;-58
2021/06/26 02:53:38;;;;;;;7.80;5.83;;;15.90;99.90;;;;;;5036586;28;20553;-58
2021/06/26 02:56:06;;;;;;;6.83;5.60;;;15.90;99.90;;;;;;5037439;28;20457;-58
2021/06/26 02:58:33;;;;;;;10.03;6.30;;;16.00;99.90;;;;;;5032885;28;20498;-58
2021/06/26 03:01:00;;;;;;;7.43;6.37;;;15.90;99.90;;;;;;5041546;28;20452;-58
2021/06/26 03:03:27;;;;;;;8.20;6.50;;;15.90;99.90;;;;;;5049008;28;20522;-58
2021/06/26 03:05:56;;;;;;;10.70;7.50;;;15.70;99.90;;;;;;5033250;28;20530;-58
2021/06/26 03:08:23;;;;;;;8.53;6.93;;;15.60;99.90;;;;;;5032847;28;20452;-58
2021/06/26 03:10:50;;;;;;;8.20;6.47;;;15.60;99.90;;;;;;5033740;28;20457;-58
2021/06/26 03:13:17;;;;;;;8.40;6.50;;;15.70;99.90;;;;;;5036761;28;20491;-58
2021/06/26 03:15:44;;;;;;;8.93;6.77;;;15.70;99.90;;;;;;5032324;28;20946;-58
2021/06/26 03:18:12;;;;;;;11.20;8.03;;;15.70;99.90;;;;;;5032647;28;20503;-58
2021/06/26 03:20:39;;;;;;;9.50;6.03;;;15.70;99.90;;;;;;5032711;28;20457;-58
2021/06/26 03:23:07;;;;;;;7.33;6.63;;;15.70;99.90;;;;;;5031996;28;20510;-59
2021/06/26 03:25:35;;;;;;;11.30;6.70;;;15.70;99.90;;;;;;5032596;28;20518;-58
2021/06/26 03:28:02;;;;;;;7.37;6.10;;;15.70;99.90;;;;;;5032935;28;20506;-58
2021/06/26 03:30:29;;;;;;;7.10;5.83;;;15.60;99.90;;;;;;5028308;28;20499;-58
2021/06/26 03:32:56;;;;;;;9.57;6.07;;;15.60;99.90;;;;;;5030839;28;20445;-59
2021/06/26 03:35:23;;;;;;;8.07;6.57;;;15.60;99.90;;;;;;5032107;28;20542;-55
2021/06/26 03:37:50;;;;;;;6.30;5.70;;;15.50;99.90;;;;;;5032616;28;20463;-59
2021/06/26 03:40:18;;;;;;;7.40;6.03;;;15.60;99.90;;;;;;5032657;28;20478;-58
2021/06/26 03:42:45;;;;;;;6.97;5.87;;;15.60;99.90;;;;;;5032397;28;20460;-58
2021/06/26 03:45:13;;;;;;;7.30;5.63;;;15.70;99.90;;;;;;5031998;28;20465;-59
2021/06/26 03:47:40;;;;;;;6.90;5.57;;;15.70;99.90;;;;;;5031982;28;20519;-58
2021/06/26 03:50:09;;;;;;;6.97;5.87;;;15.80;99.90;;;;;;5032570;28;20457;-59
2021/06/26 03:52:36;;;;;;;7.07;6.10;;;15.90;99.90;;;;;;5031820;28;20448;-58
2021/06/26 03:55:03;;;;;;;6.20;5.40;;;15.90;99.90;;;;;;5032329;28;20542;-59
2021/06/26 03:57:32;;;;;;;8.67;5.70;;;15.90;99.90;;;;;;5032058;28;20554;-58
2021/06/26 03:59:59;;;;;;;8.83;6.10;;;16.00;99.90;;;;;;5031811;28;20453;-59
2021/06/26 04:02:26;;;;;;;7.03;6.00;;;15.90;99.90;;;;;;5032058;28;20453;-59
2021/06/26 04:04:52;;;;;;;6.90;5.77;;;15.90;99.90;;;;;;5031923;28;20523;-58
2021/06/26 04:07:19;;;;;;;7.73;5.80;;;15.90;99.90;;;;;;5025709;28;20491;-59
2021/06/26 04:09:46;;;;;;;8.87;5.70;;;15.90;99.90;;;;;;5012481;28;20457;-58
2021/06/26 04:12:13;;;;;;;7.93;6.33;;;16.00;99.90;;;;;;5031282;28;20449;-58
2021/06/26 04:14:42;;;;;;;6.20;5.60;;;16.00;99.90;;;;;;5031351;28;20488;-58
2021/06/26 04:17:09;;;;;;;8.00;6.37;;;16.10;99.90;;;;;;5031812;28;21008;-59
2021/06/26 04:19:36;;;;;;;6.20;5.60;;;16.20;99.90;;;;;;5031454;28;20453;-58
2021/06/26 04:22:03;;;;;;;6.63;5.43;;;16.20;99.90;;;;;;5031992;28;20458;-58
2021/06/26 04:24:30;;;;;;;8.97;5.97;;;16.30;99.90;;;;;;5031918;28;20472;-58
2021/06/26 04:26:57;;;;;;;7.47;6.17;;;16.30;99.90;;;;;;5031801;28;20483;-58
2021/06/26 04:29:25;;;;;;;10.50;5.50;;;16.40;99.90;;;;;;5031561;28;20482;-58
2021/06/26 04:31:53;;;;;;;6.20;5.57;;;16.50;99.90;;;;;;5035339;28;20483;-58
2021/06/26 04:34:20;;;;;;;6.33;5.70;;;16.50;99.90;;;;;;5031312;28;20931;-58
2021/06/26 04:36:48;;;;;;;8.10;5.73;;;16.60;99.90;;;;;;5031817;28;20449;-58
2021/06/26 04:39:15;;;;;;;6.67;5.57;;;16.70;99.90;;;;;;5031502;28;20511;-58
2021/06/26 04:41:42;;;;;;;5.80;4.93;;;16.70;99.90;;;;;;5031076;28;20448;-58
2021/06/26 04:44:09;;;;;;;6.93;5.43;;;16.80;99.90;;;;;;5031430;28;20566;-58
2021/06/26 04:46:37;;;;;;;8.20;5.30;;;16.80;99.90;;;;;;5030804;28;20506;-58
2021/06/26 04:49:06;;;;;;;11.50;5.23;;;16.90;99.90;;;;;;5031417;28;20484;-59
2021/06/26 04:51:38;;;;;;;5.73;5.10;;;16.90;99.90;;;;;;5030944;28;20453;-58
2021/06/26 04:54:05;;;;;;;8.53;5.70;;;17.00;99.90;;;;;;5031326;28;20488;-59
2021/06/26 04:56:32;;;;;;;5.13;4.30;;;17.20;99.90;;;;;;5030692;28;21085;-58
2021/06/26 04:59:00;;;;;;;6.10;5.10;;;17.30;99.90;;;;;;5034017;28;21012;-58
2021/06/26 05:01:27;;;;;;;5.73;4.83;;;17.40;99.90;;;;;;5034505;28;20449;-58
2021/06/26 05:03:54;;;;;;;4.63;4.23;;;17.70;99.90;;;;;;5062687;22;20503;-50
2021/06/26 05:06:22;;;;;;;5.60;4.53;;;18.20;99.90;;;;;;5053690;28;20455;-50
2021/06/26 05:08:49;;;;;;;5.00;4.10;;;19.10;99.90;;;;;;5055003;28;20505;-50
2021/06/26 05:11:16;;;;;;;5.17;4.50;;;20.10;99.90;;;;;;5054661;28;20950;-49
2021/06/26 05:13:43;;;;;;;5.77;5.17;;;21.10;99.90;;;;;;5059143;28;20984;-51
2021/06/26 05:16:10;;;;;;;5.60;4.70;;;21.90;99.90;;;;;;5074806;28;20869;-50
2021/06/26 05:18:37;;;;;;;5.33;4.53;;;22.60;99.90;;;;;;5069806;28;20499;-50
2021/06/26 05:21:04;;;;;;;6.53;4.73;;;23.10;99.90;;;;;;5054473;28;20848;-50
2021/06/26 05:23:33;;;;;;;5.00;4.30;;;23.90;99.90;;;;;;5054590;28;20467;-50
2021/06/26 05:26:00;;;;;;;5.30;4.80;;;24.50;99.90;;;;;;5060697;28;20817;-50
2021/06/26 05:28:27;;;;;;;5.60;5.10;;;24.20;99.90;;;;;;5071594;28;20800;-51
2021/06/26 05:30:54;;;;;;;4.70;4.30;;;24.20;99.90;;;;;;5070196;28;20847;-51
2021/06/26 05:33:21;;;;;;;5.77;4.30;;;24.80;99.90;;;;;;5055129;28;20463;-51
2021/06/26 05:35:49;;;;;;;5.27;4.63;;;25.50;99.90;;;;;;5073990;28;20486;-51
2021/06/26 05:38:16;;;;;;;4.53;4.13;;;26.10;99.90;;;;;;5072101;28;20464;-51
2021/06/26 05:40:45;;;;;;;4.13;3.83;;;26.10;99.90;;;;;;5074133;28;20450;-50
2021/06/26 05:43:12;;;;;;;5.83;5.23;;;26.60;99.90;;;;;;5067497;28;20867;-50
2021/06/26 05:45:40;;;;;;;5.17;4.77;;;26.80;99.90;;;;;;5065709;28;20885;-51
2021/06/26 05:48:08;;;;;;;4.17;3.87;;;27.10;99.90;;;;;;5062154;28;20463;-52
2021/06/26 05:50:35;;;;;;;5.97;4.50;;;27.60;99.90;;;;;;5091834;28;20446;-53
2021/06/26 05:53:03;;;;;;;6.13;4.97;;;27.80;99.90;;;;;;5073189;28;20443;-52
2021/06/26 05:55:30;;;;;;;5.67;4.63;;;27.90;99.90;;;;;;5071839;28;20475;-51
2021/06/26 05:57:59;;;;;;;5.80;5.00;;;27.30;99.90;;;;;;5066810;28;20956;-51
2021/06/26 06:00:28;;;;;;;6.37;5.00;;;27.30;99.90;;;;;;5064641;28;20454;-50
2021/06/26 06:02:55;;;;;;;5.17;4.77;;;27.50;99.90;;;;;;5053885;28;20816;-50
2021/06/26 06:05:22;;;;;;;4.77;4.37;;;26.80;99.90;;;;;;5070994;28;20871;-51
2021/06/26 06:07:49;;;;;;;4.57;4.17;;;27.60;99.90;;;;;;5073920;28;20451;-51
2021/06/26 06:10:18;;;;;;;5.60;4.00;;;27.80;99.90;;;;;;5072321;28;20504;-51
2021/06/26 06:12:46;;;;;;;4.13;3.73;;;28.00;99.90;;;;;;5068800;28;20349;-51
2021/06/26 06:15:14;;;;;;;4.00;3.70;;;28.20;99.90;;;;;;5069252;28;20487;-52
2021/06/26 06:17:42;;;;;;;3.73;3.43;;;28.50;99.90;;;;;;5065778;28;20501;-51
2021/06/26 06:20:10;;;;;;;4.63;4.20;;;28.90;99.90;;;;;;5072744;28;21017;-51
2021/06/26 06:22:37;;;;;;;8.27;3.87;;;27.90;99.90;;;;;;5072792;28;20451;-51
2021/06/26 06:25:10;;;;;;;4.20;3.80;;;27.50;99.90;;;;;;5073177;28;20470;-51
2021/06/26 06:27:40;;;;;;;4.47;4.17;;;28.10;99.90;;;;;;5053672;28;20452;-51
2021/06/26 06:30:08;;;;;;;7.47;4.00;;;27.10;99.90;;;;;;5053320;28;20439;-51
2021/06/26 06:32:37;;;;;;;4.30;4.00;;;27.30;99.90;;;;;;5071674;28;20450;-52
2021/06/26 06:35:05;;;;;;;4.80;4.37;;;27.00;99.90;;;;;;5066279;28;20525;-52
2021/06/26 06:37:32;;;;;;;4.30;3.90;;;27.30;99.90;;;;;;5055738;28;20451;-51
2021/06/26 06:39:59;;;;;;;4.60;3.70;;;27.80;99.90;;;;;;5073388;28;20451;-52
2021/06/26 06:42:26;;;;;;;4.20;3.80;;;27.10;99.90;;;;;;5072995;28;20500;-51
2021/06/26 06:44:54;;;;;;;4.07;3.77;;;27.40;99.90;;;;;;5072585;28;20470;-51
2021/06/26 06:47:21;;;;;;;4.03;3.73;;;27.70;99.90;;;;;;5071589;28;20438;-52
2021/06/26 06:49:49;;;;;;;4.30;3.90;;;28.20;99.90;;;;;;5065381;28;21014;-51
2021/06/26 06:52:16;;;;;;;3.77;3.47;;;28.40;99.90;;;;;;5061792;28;20451;-51
2021/06/26 06:54:43;;;;;;;4.73;4.33;;;28.10;99.90;;;;;;5053099;28;20483;-51
2021/06/26 06:57:10;;;;;;;4.87;3.43;;;27.80;99.90;;;;;;5057364;28;20460;-52
2021/06/26 06:59:38;;;;;;;4.57;3.97;;;27.80;99.90;;;;;;5053284;28;20505;-50
2021/06/26 07:02:05;;;;;;;4.20;3.90;;;28.20;99.90;;;;;;5060078;28;20447;-52
2021/06/26 07:04:33;;;;;;;3.93;3.63;;;27.60;99.90;;;;;;5071056;28;20547;-51
2021/06/26 07:07:01;;;;;;;6.50;5.23;;;27.90;99.90;;;;;;5073141;28;20449;-52
2021/06/26 07:09:28;;;;;;;4.70;4.30;;;27.10;99.90;;;;;;5072670;28;20811;-51
2021/06/26 07:11:55;;;;;;;5.23;4.83;;;26.90;99.90;;;;;;5072634;28;20896;-51
2021/06/26 07:14:22;;;;;;;5.30;4.53;;;27.80;99.90;;;;;;5072488;28;20470;-51
2021/06/26 07:16:49;;;;;;;5.03;4.37;;;28.00;99.90;;;;;;5072560;28;20451;-51
2021/06/26 07:19:16;;;;;;;4.87;4.47;;;27.00;99.90;;;;;;5072544;28;20455;-51
2021/06/26 07:21:43;;;;;;;4.87;4.47;;;28.20;99.90;;;;;;5071299;28;20949;-51
2021/06/26 07:24:12;;;;;;;5.33;4.83;;;27.20;99.90;;;;;;5072574;28;20470;-51
2021/06/26 07:26:40;;;;;;;4.73;4.33;;;27.00;99.90;;;;;;5072511;28;20496;-51
2021/06/26 07:29:07;;;;;;;5.10;4.70;;;26.80;99.90;;;;;;5072436;28;20450;-53
2021/06/26 07:31:37;;;;;;;4.90;4.50;;;27.80;99.90;;;;;;5072302;28;20458;-52
2021/06/26 07:34:05;;;;;;;5.30;4.90;;;28.30;99.90;;;;;;5072179;28;20881;-52
2021/06/26 07:36:33;;;;;;;5.47;4.97;;;29.00;99.90;;;;;;5072298;28;21012;-52
2021/06/26 07:39:00;;;;;;;8.40;6.37;;;29.00;99.90;;;;;;5072480;28;20454;-53
2021/06/26 07:41:28;;;;;;;6.57;5.97;;;28.60;99.90;;;;;;5072026;28;20534;-53
2021/06/26 07:43:55;;;;;;;7.93;6.93;;;28.10;99.90;;;;;;5071998;28;20471;-55
2021/06/26 07:46:22;;;;;;;8.07;7.20;;;26.60;99.90;;;;;;5072061;28;20443;-52
2021/06/26 07:48:49;;;;;;;8.90;7.70;;;25.50;99.90;;;;;;5071500;28;20451;-52
2021/06/26 07:51:17;;;;;;;8.83;7.80;;;23.60;99.90;;;;;;5071735;28;20454;-53
2021/06/26 07:53:44;;;;;;;8.97;8.07;;;22.60;99.90;;;;;;5071740;28;20470;-51
2021/06/26 07:56:11;;;;;;;7.47;6.60;;;21.90;99.90;;;;;;5071916;28;20478;-51
2021/06/26 07:58:40;;;;;;;8.17;6.30;;;22.40;99.90;;;;;;5071902;28;20451;-52
2021/06/26 08:01:06;;;;;;;10.40;8.50;;;23.20;99.90;;;;;;5071429;28;20443;-52
2021/06/26 08:03:34;;;;;;;9.00;6.50;;;23.30;99.90;;;;;;5071447;28;20479;-52
2021/06/26 08:06:00;;;;;;;7.27;6.53;;;23.90;99.90;;;;;;5071905;28;20933;-52
2021/06/26 08:08:27;;;;;;;7.57;6.00;;;24.80;99.90;;;;;;5071872;28;20517;-53
2021/06/26 08:10:54;;;;;;;8.70;6.73;;;25.60;99.90;;;;;;5071418;28;20447;-53
2021/06/26 08:13:24;;;;;;;7.07;6.40;;;26.70;99.90;;;;;;5071686;28;20504;-52
2021/06/26 08:15:52;;;;;;;10.80;7.40;;;26.40;99.90;;;;;;5071987;28;20486;-53
2021/06/26 08:18:19;;;;;;;8.73;6.60;;;25.30;99.90;;;;;;5071361;28;20443;-53
2021/06/26 08:20:46;;;;;;;7.87;6.60;;;25.00;99.90;;;;;;5071737;28;20512;-52
2021/06/26 08:23:13;;;;;;;7.43;6.60;;;24.50;99.90;;;;;;5070730;28;20979;-52
2021/06/26 08:25:40;;;;;;;7.00;6.30;;;23.90;99.90;;;;;;5071252;28;20508;-52
2021/06/26 08:28:07;;;;;;;6.33;5.73;;;24.80;99.90;;;;;;5071762;28;20447;-52
2021/06/26 08:30:34;;;;;;;7.70;6.17;;;25.20;99.90;;;;;;5071693;28;20446;-52
2021/06/26 08:33:05;;;;;;;8.93;6.70;;;25.30;99.90;;;;;;5070813;28;20447;-52
2021/06/26 08:35:31;;;;;;;8.50;6.70;;;24.80;99.90;;;;;;5071207;28;20964;-52
2021/06/26 08:37:58;;;;;;;7.43;6.73;;;23.90;99.90;;;;;;5070815;28;20717;-52
2021/06/26 08:40:25;;;;;;;7.37;6.63;;;23.40;99.90;;;;;;5071384;28;20520;-53
2021/06/26 08:42:53;;;;;;;7.47;5.90;;;23.60;99.90;;;;;;5071191;28;20862;-52
2021/06/26 08:45:21;;;;;;;6.90;6.03;;;23.00;99.90;;;;;;5071458;28;20545;-53
2021/06/26 08:47:49;;;;;;;7.60;6.80;;;23.30;99.90;;;;;;5071407;28;20890;-52
2021/06/26 08:50:18;;;;;;;6.30;5.40;;;24.60;99.90;;;;;;5070739;28;20450;-52
2021/06/26 08:52:45;;;;;;;7.90;5.23;;;24.40;99.90;;;;;;5070794;28;20447;-53
2021/06/26 08:55:14;;;;;;;6.80;6.10;;;25.00;99.90;;;;;;5071132;28;20540;-52
2021/06/26 08:57:42;;;;;;;7.53;5.53;;;24.30;99.90;;;;;;5071495;28;20496;-52
2021/06/26 09:00:12;;;;;;;6.53;5.60;;;24.60;99.90;;;;;;5071417;28;20450;-52
2021/06/26 09:02:39;;;;;;;5.70;5.20;;;24.60;99.90;;;;;;5071191;28;20594;-52
2021/06/26 09:05:07;;;;;;;7.90;6.90;;;24.80;99.90;;;;;;5071111;28;20703;-52
2021/06/26 09:07:36;;;;;;;5.70;5.20;;;24.30;99.90;;;;;;5071163;28;20451;-53
2021/06/26 09:10:14;;;;;;;6.90;5.43;;;24.60;99.90;;;;;;5070544;28;20458;-52
2021/06/26 09:12:42;;;;;;;5.73;5.23;;;24.60;99.90;;;;;;5070823;28;20533;-53
2021/06/26 09:15:11;;;;;;;8.90;6.10;;;24.30;99.90;;;;;;5070734;28;21000;-52
2021/06/26 09:17:38;;;;;;;5.73;5.20;;;23.70;99.90;;;;;;5069964;28;20531;-52
2021/06/26 09:20:09;;;;;;;5.27;4.87;;;23.70;99.90;;;;;;5070789;28;20459;-52
2021/06/26 09:22:42;;;;;;;7.43;5.83;;;24.60;99.90;;;;;;5070619;28;20497;-52
2021/06/26 09:25:25;;;;;;;7.33;5.33;;;23.90;99.90;;;;;;5059670;28;20478;-51
2021/06/26 09:27:52;;;;;;;5.70;5.20;;;23.60;99.90;;;;;;5067792;28;21039;-52
2021/06/26 09:30:33;;;;;;;5.27;4.77;;;24.60;99.90;;;;;;5070802;28;20500;-51
2021/06/26 09:33:04;;;;;;;5.20;4.80;;;25.00;99.90;;;;;;5059886;28;20470;-51
2021/06/26 09:35:31;;;;;;;5.20;4.70;;;24.70;99.90;;;;;;5066121;28;21024;-52
2021/06/26 09:38:05;;;;;;;4.80;4.40;;;24.70;99.90;;;;;;5056235;28;20983;-51
2021/06/26 09:40:32;;;;;;;5.70;5.03;;;25.10;99.90;;;;;;5063718;28;20536;-53
2021/06/26 09:42:59;;;;;;;5.33;4.83;;;25.10;99.90;;;;;;5070239;28;20450;-51
2021/06/26 09:45:27;;;;;;;5.63;4.70;;;26.00;99.90;;;;;;5068965;28;20972;-53
2021/06/26 09:47:53;;;;;;;6.13;4.97;;;25.50;99.90;;;;;;5065842;28;20450;-52
2021/06/26 09:50:22;;;;;;;7.20;4.90;;;24.90;99.90;;;;;;5072287;28;20447;-53
2021/06/26 09:52:50;;;;;;;5.63;4.80;;;24.60;99.90;;;;;;5071792;28;20450;-51
2021/06/26 09:55:22;;;;;;;4.37;4.07;;;25.00;99.90;;;;;;5063313;28;20489;-53
2021/06/26 09:57:50;;;;;;;4.83;4.43;;;25.50;99.90;;;;;;5069106;28;20455;-52
2021/06/26 10:00:19;;;;;;;4.40;4.10;;;25.90;99.90;;;;;;5057013;28;20498;-52
2021/06/26 10:02:46;;;;;;;4.90;4.50;;;26.00;99.90;;;;;;5060178;28;20460;-52
2021/06/26 10:05:15;;;;;;;6.50;3.90;;;25.80;99.90;;;;;;5073491;28;20528;-52
2021/06/26 10:07:43;;;;;;;4.23;3.93;;;25.80;99.90;;;;;;5064010;28;21009;-53
2021/06/26 10:10:12;;;;;;;4.00;3.70;;;26.10;99.90;;;;;;5053939;28;20454;-53
2021/06/26 10:12:41;;;;;;;3.40;3.20;;;26.70;99.90;;;;;;5062501;28;20450;-53
2021/06/26 10:15:10;;;;;;;4.07;3.67;;;26.90;99.90;;;;;;5071957;28;20521;-53
2021/06/26 10:17:38;;;;;;;4.63;3.53;;;26.70;99.90;;;;;;5067205;28;20487;-53
2021/06/26 10:20:07;;;;;;;5.27;4.10;;;26.40;99.90;;;;;;5053806;28;21076;-51
2021/06/26 10:22:37;;;;;;;3.60;3.30;;;25.80;99.90;;;;;;5053407;28;20593;-53
2021/06/26 10:25:06;;;;;;;4.33;3.97;;;26.60;99.90;;;;;;5053554;28;20471;-53
2021/06/26 10:27:33;;;;;;;4.27;3.70;;;27.50;99.90;;;;;;5068311;28;20471;-53
2021/06/26 10:30:16;;;;;;;3.47;3.17;;;28.30;99.90;;;;;;5058764;28;20504;-52
2021/06/26 10:32:54;;;;;;;5.13;3.40;;;28.30;99.90;;;;;;5073282;28;20505;-54
2021/06/26 10:35:22;;;;;;;3.93;3.63;;;28.40;99.90;;;;;;5073560;28;20528;-53
2021/06/26 10:38:00;;;;;;;3.70;3.40;;;27.70;99.90;;;;;;5073632;28;20511;-53
2021/06/26 10:40:43;;;;;;;3.80;3.50;;;26.70;99.90;;;;;;5073417;28;20943;-53
2021/06/26 10:43:19;;;;;;;4.00;3.70;;;26.40;99.90;;;;;;5072651;28;21005;-52
2021/06/26 10:45:48;;;;;;;5.40;3.73;;;26.10;99.90;;;;;;5073181;28;20457;-53
2021/06/26 10:48:17;;;;;;;4.00;3.70;;;26.20;99.90;;;;;;5068964;28;21015;-52
2021/06/26 10:50:50;;;;;;;3.70;3.40;;;26.20;99.90;;;;;;5058584;28;20983;-53
2021/06/26 10:53:28;;;;;;;3.70;3.40;;;26.50;99.90;;;;;;5065991;28;20891;-52
2021/06/26 10:56:07;;;;;;;4.60;3.13;;;27.00;99.90;;;;;;5060274;28;20479;-53
2021/06/26 10:58:37;;;;;;;4.20;3.40;;;26.90;99.90;;;;;;5056257;28;20513;-53
2021/06/26 11:01:17;;;;;;;4.43;4.03;;;27.20;99.90;;;;;;5051293;28;20959;-53
2021/06/26 11:03:45;;;;;;;3.57;3.27;;;27.20;99.90;;;;;;5079112;22;20481;-60
2021/06/26 11:06:17;;;;;;;3.47;3.17;;;27.60;99.90;;;;;;5012815;28;20454;-59
2021/06/26 11:08:58;;;;;;;4.73;3.50;;;27.10;99.90;;;;;;5014474;28;20449;-59
2021/06/26 11:11:30;;;;;;;3.27;3.07;;;26.40;99.90;;;;;;4993479;28;20450;-60
2021/06/26 11:14:12;;;;;;;3.63;3.43;;;26.30;99.90;;;;;;4993408;28;20474;-59
2021/06/26 11:16:42;;;;;;;3.30;3.10;;;26.00;99.90;;;;;;5008982;28;20481;-59
2021/06/26 11:19:09;;;;;;;3.57;3.37;;;26.00;99.90;;;;;;5013019;28;20507;-59
2021/06/26 11:21:41;;;;;;;3.67;3.40;;;26.20;99.90;;;;;;5012839;28;20449;-59
2021/06/26 11:24:09;;;;;;;3.60;3.30;;;26.50;99.90;;;;;;5012885;28;20469;-59
2021/06/26 11:26:51;;;;;;;3.50;3.20;;;26.40;99.90;;;;;;5012701;28;20871;-59
2021/06/26 11:29:26;;;;;;;3.30;3.10;;;25.70;99.90;;;;;;5006355;28;20454;-59
2021/06/26 11:31:55;;;;;;;3.30;3.00;;;25.60;99.90;;;;;;5012308;28;20453;-60
2021/06/26 11:34:22;;;;;;;3.47;3.27;;;25.30;99.90;;;;;;5012793;28;20809;-59
2021/06/26 11:37:01;;;;;;;3.53;3.30;;;25.30;99.90;;;;;;5025276;28;20943;-59
2021/06/26 11:39:30;;;;;;;3.20;2.90;;;25.00;99.90;;;;;;5032370;28;20447;-59
2021/06/26 11:41:57;;;;;;;3.33;3.03;;;25.20;99.90;;;;;;5030343;28;20515;-60
2021/06/26 11:44:33;;;;;;;3.23;3.03;;;25.50;99.90;;;;;;5032285;28;20480;-60
2021/06/26 11:47:03;;;;;;;3.17;2.97;;;25.10;99.90;;;;;;5028173;28;20453;-59
2021/06/26 11:49:41;;;;;;;2.97;2.77;;;24.80;99.90;;;;;;5028174;28;20459;-60
2021/06/26 11:52:11;;;;;;;3.67;2.90;;;25.00;99.90;;;;;;5012355;28;20453;-59
2021/06/26 11:54:38;;;;;;;3.13;2.93;;;25.20;99.90;;;;;;5012393;28;20539;-59
2021/06/26 11:57:08;;;;;;;3.63;3.33;;;25.10;99.90;;;;;;5012226;28;20555;-59
2021/06/26 11:59:46;;;;;;;3.93;3.53;;;24.90;99.90;;;;;;5012346;28;20874;-59
2021/06/26 12:02:17;;;;;;;3.30;3.10;;;25.20;99.90;;;;;;5012743;28;20453;-58
2021/06/26 12:04:44;;;;;;;3.13;2.93;;;25.10;99.90;;;;;;5012225;28;20584;-59
2021/06/26 12:07:12;;;;;;;3.20;3.00;;;25.20;99.90;;;;;;5012003;28;20453;-59
2021/06/26 12:09:43;;;;;;;3.03;2.83;;;25.30;99.90;;;;;;5012111;28;20446;-59
2021/06/26 12:12:11;;;;;;;3.17;2.97;;;25.30;99.90;;;;;;5020412;28;20502;-59
2021/06/26 12:14:40;;;;;;;2.60;2.50;;;25.10;99.90;;;;;;5031527;28;20468;-59
2021/06/26 12:17:10;;;;;;;2.80;2.60;;;25.10;99.90;;;;;;5029972;28;20512;-60
2021/06/26 12:19:39;;;;;;;2.97;2.77;;;25.10;99.90;;;;;;5018329;28;20450;-59
2021/06/26 12:22:07;;;;;;;3.40;3.10;;;25.00;99.90;;;;;;5011546;28;20458;-59
2021/06/26 12:24:38;;;;;;;2.87;2.67;;;25.10;99.90;;;;;;5011220;28;20536;-59
2021/06/26 12:27:11;;;;;;;2.97;2.70;;;25.20;99.90;;;;;;5011566;28;20449;-60
2021/06/26 12:29:39;;;;;;;3.03;2.60;;;25.00;99.90;;;;;;5011864;28;20442;-59
2021/06/26 12:32:07;;;;;;;3.13;2.87;;;25.20;99.90;;;;;;5024371;28;20540;-60
2021/06/26 12:34:47;;;;;;;2.80;2.60;;;25.10;99.90;;;;;;5009146;28;20469;-59
2021/06/26 12:37:14;;;;;;;2.80;2.60;;;25.00;99.90;;;;;;5009453;28;20481;-59
2021/06/26 12:39:42;;;;;;;2.67;2.43;;;25.00;99.90;;;;;;5010848;28;20453;-58
2021/06/26 12:42:12;;;;;;;2.97;2.80;;;24.70;99.90;;;;;;5011472;28;20457;-58
2021/06/26 12:44:42;;;;;;;3.00;2.80;;;24.40;99.90;;;;;;5011893;28;20925;-59
2021/06/26 12:47:11;;;;;;;3.07;2.87;;;24.40;99.90;;;;;;5011601;28;20537;-59
2021/06/26 12:49:40;;;;;;;3.80;3.03;;;24.70;99.90;;;;;;5011637;28;20457;-59
2021/06/26 12:52:13;;;;;;;3.13;2.83;;;24.80;99.90;;;;;;5010879;28;20449;-59